createdAt,value
2024-05-09T00:00:22.074Z,100.00
2024-05-09T00:02:53.278Z,100.00
2024-05-09T00:05:20.129Z,100.00
2024-05-09T00:07:46.898Z,100.00
2024-05-09T00:10:22.384Z,100.00
2024-05-09T00:12:56.068Z,100.00
2024-05-09T00:15:22.874Z,100.00
2024-05-09T00:17:49.801Z,100.00
2024-05-09T00:20:23.917Z,100.00
2024-05-09T00:22:54.656Z,100.00
2024-05-09T00:25:21.434Z,100.00
2024-05-09T00:27:48.057Z,100.00
2024-05-09T00:30:21.557Z,100.00
2024-05-09T00:32:55.440Z,100.00
2024-05-09T00:35:22.370Z,100.00
2024-05-09T00:37:49.223Z,100.00
2024-05-09T00:40:22.928Z,100.00
2024-05-09T00:42:57.646Z,100.00
2024-05-09T00:45:24.218Z,100.00
2024-05-09T00:47:51.404Z,100.00
2024-05-09T00:50:23.040Z,100.00
2024-05-09T00:52:56.630Z,100.00
2024-05-09T00:55:24.052Z,100.00
2024-05-09T00:57:51.125Z,100.00
2024-05-09T01:00:25.990Z,100.00
2024-05-09T01:02:57.604Z,100.00
2024-05-09T01:05:24.435Z,100.00
2024-05-09T01:07:51.355Z,100.00
2024-05-09T01:10:24.302Z,100.00
2024-05-09T01:13:18.673Z,100.00
2024-05-09T01:16:05.723Z,100.00
2024-05-09T01:18:52.635Z,100.00
2024-05-09T01:21:41.416Z,100.00
2024-05-09T01:24:28.025Z,100.00
2024-05-09T01:27:14.649Z,100.00
2024-05-09T01:29:41.359Z,100.00
2024-05-09T01:32:08.127Z,100.00
2024-05-09T01:34:34.871Z,100.00
2024-05-09T01:37:01.550Z,100.00
2024-05-09T01:39:28.147Z,100.00
2024-05-09T01:41:54.888Z,100.00
2024-05-09T01:44:21.602Z,100.00
2024-05-09T01:46:48.396Z,100.00
2024-05-09T01:49:15.466Z,100.00
2024-05-09T01:51:42.175Z,100.00
2024-05-09T01:54:08.950Z,100.00
2024-05-09T01:56:35.771Z,100.00
2024-05-09T01:59:02.568Z,100.00
2024-05-09T02:01:30.783Z,100.00
2024-05-09T02:04:17.804Z,100.00
2024-05-09T02:06:44.531Z,100.00
2024-05-09T02:09:11.388Z,100.00
2024-05-09T02:11:44.064Z,100.00
2024-05-09T02:14:11.077Z,100.00
2024-05-09T02:16:37.907Z,100.00
2024-05-09T02:19:05.038Z,100.00
2024-05-09T02:21:34.214Z,100.00
2024-05-09T02:24:00.985Z,100.00
2024-05-09T02:26:27.852Z,100.00
2024-05-09T02:28:54.637Z,100.00
2024-05-09T02:31:21.369Z,100.00
2024-05-09T02:33:48.267Z,100.00
2024-05-09T02:36:15.188Z,100.00
2024-05-09T02:38:42.045Z,100.00
2024-05-09T02:41:09.325Z,100.00
2024-05-09T02:43:36.084Z,100.00
2024-05-09T02:46:02.682Z,100.00
2024-05-09T02:48:29.352Z,100.00
2024-05-09T02:50:56.142Z,100.00
2024-05-09T02:53:22.842Z,100.00
2024-05-09T02:55:49.647Z,100.00
2024-05-09T02:58:16.566Z,100.00
2024-05-09T03:00:43.439Z,100.00
2024-05-09T03:03:13.495Z,100.00
2024-05-09T03:05:45.990Z,100.00
2024-05-09T03:08:13.409Z,100.00
2024-05-09T03:10:40.204Z,100.00
2024-05-09T03:13:15.491Z,100.00
2024-05-09T03:15:43.930Z,100.00
2024-05-09T03:18:11.537Z,100.00
2024-05-09T03:20:39.151Z,100.00
2024-05-09T03:23:08.905Z,100.00
2024-05-09T03:25:36.896Z,100.00
2024-05-09T03:28:03.808Z,100.00
2024-05-09T03:30:39.175Z,100.00
2024-05-09T03:33:19.789Z,100.00
2024-05-09T03:35:48.221Z,100.00
2024-05-09T03:38:15.410Z,100.00
2024-05-09T03:40:50.215Z,100.00
2024-05-09T03:43:18.186Z,100.00
2024-05-09T03:45:45.669Z,100.00
2024-05-09T03:48:13.245Z,100.00
2024-05-09T03:50:40.925Z,100.00
2024-05-09T03:53:11.090Z,100.00
2024-05-09T03:55:37.894Z,100.00
2024-05-09T03:58:04.926Z,100.00
2024-05-09T04:00:37.633Z,100.00
2024-05-09T04:03:09.476Z,100.00
2024-05-09T04:05:43.901Z,100.00
2024-05-09T04:08:12.795Z,100.00
2024-05-09T04:10:40.340Z,100.00
2024-05-09T04:13:07.127Z,100.00
2024-05-09T04:15:34.201Z,100.00
2024-05-09T04:18:01.825Z,100.00
2024-05-09T04:20:37.146Z,100.00
2024-05-09T04:23:08.455Z,100.00
2024-05-09T04:25:36.664Z,100.00
2024-05-09T04:28:03.587Z,100.00
2024-05-09T04:30:36.991Z,100.00
2024-05-09T04:33:09.267Z,100.00
2024-05-09T04:35:38.329Z,100.00
2024-05-09T04:38:05.526Z,100.00
2024-05-09T04:40:35.593Z,100.00
2024-05-09T04:43:07.612Z,100.00
2024-05-09T04:45:34.973Z,100.00
2024-05-09T04:48:02.436Z,100.00
2024-05-09T04:50:36.108Z,100.00
2024-05-09T04:53:10.483Z,100.00
2024-05-09T04:55:38.350Z,100.00
2024-05-09T04:58:08.930Z,100.00
2024-05-09T05:00:37.898Z,100.00
2024-05-09T05:03:08.535Z,100.00
2024-05-09T05:05:40.982Z,100.00
2024-05-09T05:08:12.298Z,100.00
2024-05-09T05:10:39.285Z,100.00
2024-05-09T05:13:23.909Z,100.00
2024-05-09T05:15:58.469Z,100.00
2024-05-09T05:18:29.031Z,100.00
2024-05-09T05:20:56.469Z,100.00
2024-05-09T05:23:24.428Z,100.00
2024-05-09T05:25:54.268Z,100.00
2024-05-09T05:28:21.950Z,100.00
2024-05-09T05:30:49.038Z,100.00
2024-05-09T05:33:18.141Z,100.00
2024-05-09T05:35:45.246Z,100.00
2024-05-09T05:38:11.981Z,100.00
2024-05-09T05:40:39.904Z,100.00
2024-05-09T05:43:09.744Z,100.00
2024-05-09T05:45:36.844Z,100.00
2024-05-09T05:48:05.538Z,100.00
2024-05-09T05:50:36.504Z,100.00
2024-05-09T05:53:09.958Z,100.00
2024-05-09T05:55:40.899Z,100.00
2024-05-09T05:58:14.927Z,100.00
2024-05-09T06:00:42.584Z,100.00
2024-05-09T06:03:11.675Z,100.00
2024-05-09T06:05:40.502Z,100.00
2024-05-09T06:08:08.483Z,100.00
2024-05-09T06:10:39.174Z,100.00
2024-05-09T06:13:10.664Z,100.00
2024-05-09T06:15:37.551Z,100.00
2024-05-09T06:18:08.752Z,100.00
2024-05-09T06:20:38.023Z,100.00
2024-05-09T06:23:10.118Z,100.00
2024-05-09T06:25:38.613Z,100.00
2024-05-09T06:28:06.049Z,100.00
2024-05-09T06:33:02.908Z,100.00
2024-05-09T06:35:29.864Z,100.00
2024-05-09T06:37:56.848Z,100.00
2024-05-09T06:40:29.236Z,100.00
2024-05-09T06:43:01.068Z,100.00
2024-05-09T06:45:27.678Z,100.00
2024-05-09T06:47:54.650Z,100.00
2024-05-09T06:50:24.428Z,100.00
2024-05-09T06:52:55.137Z,100.00
2024-05-09T06:55:22.037Z,100.00
2024-05-09T06:57:48.770Z,100.00
2024-05-09T07:00:22.864Z,100.00
2024-05-09T07:02:59.068Z,100.00
2024-05-09T07:05:27.017Z,100.00
2024-05-09T07:07:53.847Z,100.00
2024-05-09T07:10:28.642Z,100.00
2024-05-09T07:12:59.558Z,100.00
2024-05-09T07:15:27.284Z,100.00
2024-05-09T07:17:54.205Z,100.00
2024-05-09T07:20:31.679Z,100.00
2024-05-09T07:23:02.294Z,100.00
2024-05-09T07:25:29.345Z,100.00
2024-05-09T07:27:56.680Z,100.00
2024-05-09T07:30:30.250Z,100.00
2024-05-09T07:33:00.520Z,100.00
2024-05-09T07:35:27.898Z,100.00
2024-05-09T07:37:54.845Z,100.00
2024-05-09T07:40:29.060Z,100.00
2024-05-09T07:43:07.338Z,100.00
2024-05-09T07:52:32.421Z,100.00
2024-05-09T07:55:55.872Z,100.00
2024-05-09T07:58:27.507Z,100.00
2024-05-09T08:00:54.685Z,100.00
2024-05-09T08:03:22.789Z,100.00
2024-05-09T08:05:49.797Z,100.00
2024-05-09T08:08:16.935Z,100.00
2024-05-09T08:10:43.786Z,99.59
2024-05-09T08:13:10.724Z,100.00
2024-05-09T08:15:38.069Z,95.65
2024-05-09T08:18:08.946Z,100.00
2024-05-09T08:20:38.012Z,100.00
2024-05-09T08:23:04.887Z,94.36
2024-05-09T08:25:31.714Z,89.33
2024-05-09T08:27:58.414Z,70.23
2024-05-09T08:30:32.569Z,67.50
2024-05-09T08:33:07.591Z,70.98
2024-05-09T08:35:35.409Z,62.55
2024-05-09T08:38:03.721Z,60.84
2024-05-09T08:40:35.734Z,61.21
2024-05-09T08:43:09.846Z,57.79
2024-05-09T08:45:42.123Z,57.63
2024-05-09T08:48:12.085Z,56.88
2024-05-09T08:50:40.961Z,56.66
2024-05-09T08:53:08.649Z,53.90
2024-05-09T08:55:40.225Z,52.22
2024-05-09T08:58:12.628Z,52.19
2024-05-09T09:03:11.752Z,51.22
2024-05-09T09:05:40.027Z,52.31
2024-05-09T09:08:08.607Z,50.05
2024-05-09T09:10:36.457Z,49.99
2024-05-09T09:13:09.632Z,50.55
2024-05-09T09:15:49.856Z,50.14
2024-05-09T09:18:17.746Z,49.58
2024-05-09T09:20:45.622Z,49.69
2024-05-09T09:23:12.558Z,51.95
2024-05-09T09:25:40.719Z,47.99
2024-05-09T09:28:08.133Z,47.30
2024-05-09T09:30:38.888Z,45.16
2024-05-09T09:33:06.681Z,45.38
2024-05-09T09:35:36.028Z,46.61
2024-05-09T09:38:04.646Z,43.84
2024-05-09T09:40:45.096Z,45.67
2024-05-09T09:43:21.067Z,44.86
2024-05-09T09:45:53.596Z,43.59
2024-05-09T09:48:22.205Z,44.33
2024-05-09T09:50:51.849Z,43.26
2024-05-09T09:53:19.658Z,43.75
2024-05-09T09:55:47.291Z,42.75
2024-05-09T09:58:18.272Z,43.58
2024-05-09T10:00:45.494Z,42.50
2024-05-09T10:03:12.476Z,42.31
2024-05-09T10:05:42.175Z,42.97
2024-05-09T10:08:12.216Z,41.80
2024-05-09T10:10:39.791Z,41.07
2024-05-09T10:13:07.885Z,42.21
2024-05-09T10:15:48.566Z,40.24
2024-05-09T10:18:15.708Z,39.72
2024-05-09T10:20:43.937Z,40.09
2024-05-09T10:23:27.849Z,39.98
2024-05-09T10:26:03.232Z,39.42
2024-05-09T10:28:37.927Z,39.35
2024-05-09T10:31:13.398Z,40.11
2024-05-09T10:33:47.685Z,39.67
2024-05-09T10:36:22.260Z,37.97
2024-05-09T10:38:50.146Z,38.77
2024-05-09T10:41:17.928Z,38.22
2024-05-09T10:43:44.725Z,38.11
2024-05-09T10:46:12.106Z,38.92
2024-05-09T10:48:41.321Z,38.94
2024-05-09T10:51:09.018Z,38.85
2024-05-09T10:53:46.727Z,38.56
2024-05-09T10:56:14.646Z,38.30
2024-05-09T10:58:42.479Z,37.93
2024-05-09T11:01:10.260Z,38.53
2024-05-09T11:03:38.141Z,39.70
2024-05-09T11:06:06.330Z,40.08
2024-05-09T11:08:34.085Z,41.67
2024-05-09T11:11:02.952Z,40.37
2024-05-09T11:13:31.539Z,40.91
2024-05-09T11:16:02.319Z,40.91
2024-05-09T11:18:35.017Z,39.87
2024-05-09T11:21:12.406Z,40.35
2024-05-09T11:23:39.595Z,38.34
2024-05-09T11:26:07.083Z,38.92
2024-05-09T11:28:33.811Z,38.41
2024-05-09T11:31:09.195Z,37.78
2024-05-09T11:33:38.611Z,39.06
2024-05-09T11:36:06.610Z,38.75
2024-05-09T11:38:33.527Z,38.24
2024-05-09T11:41:02.389Z,38.87
2024-05-09T11:43:29.111Z,36.78
2024-05-09T11:45:59.936Z,38.58
2024-05-09T11:48:27.047Z,36.97
2024-05-09T11:50:56.968Z,37.16
2024-05-09T11:53:23.986Z,37.94
2024-05-09T11:55:50.753Z,37.69
2024-05-09T11:58:18.890Z,39.95
2024-05-09T12:00:46.480Z,35.83
2024-05-09T12:03:13.563Z,37.28
2024-05-09T12:05:40.585Z,35.51
2024-05-09T12:08:07.674Z,34.29
2024-05-09T12:10:36.808Z,35.10
2024-05-09T12:13:06.098Z,35.04
2024-05-09T12:15:36.597Z,35.87
2024-05-09T12:18:04.983Z,34.07
2024-05-09T12:20:37.497Z,34.45
2024-05-09T12:23:07.527Z,34.91
2024-05-09T12:25:35.764Z,34.03
2024-05-09T12:28:02.728Z,33.02
2024-05-09T12:30:36.356Z,32.61
2024-05-09T12:33:08.292Z,33.23
2024-05-09T12:35:35.280Z,32.35
2024-05-09T12:38:02.183Z,32.86
2024-05-09T12:40:35.727Z,32.95
2024-05-09T12:43:06.940Z,32.02
2024-05-09T12:45:34.009Z,33.32
2024-05-09T12:48:01.067Z,31.69
2024-05-09T12:50:32.936Z,33.09
2024-05-09T12:53:02.365Z,32.59
2024-05-09T12:55:34.242Z,32.37
2024-05-09T12:58:08.685Z,31.54
2024-05-09T13:00:36.204Z,31.71
2024-05-09T13:03:03.174Z,32.48
2024-05-09T13:05:30.401Z,30.82
2024-05-09T13:07:58.248Z,31.52
2024-05-09T13:10:31.788Z,31.23
2024-05-09T13:13:01.140Z,31.40
2024-05-09T13:15:30.326Z,31.14
2024-05-09T13:18:00.562Z,30.88
2024-05-09T13:20:33.668Z,30.65
2024-05-09T13:23:03.626Z,31.77
2024-05-09T13:25:30.537Z,30.99
2024-05-09T13:27:57.735Z,31.43
2024-05-09T13:30:30.248Z,29.62
2024-05-09T13:33:06.573Z,29.71
2024-05-09T13:35:36.883Z,30.41
2024-05-09T13:38:04.474Z,30.77
2024-05-09T13:40:34.766Z,32.00
2024-05-09T13:43:04.804Z,29.57
2024-05-09T13:45:32.076Z,29.98
2024-05-09T13:47:59.252Z,30.68
2024-05-09T13:50:33.367Z,29.40
2024-05-09T13:53:04.618Z,28.66
2024-05-09T13:55:31.729Z,29.62
2024-05-09T13:57:58.637Z,29.29
2024-05-09T14:02:55.194Z,29.75
2024-05-09T14:05:22.135Z,31.06
2024-05-09T14:07:49.112Z,29.74
2024-05-09T14:10:23.181Z,30.33
2024-05-09T14:12:55.743Z,30.98
2024-05-09T14:15:22.853Z,28.86
2024-05-09T14:17:49.698Z,30.21
2024-05-09T14:20:23.718Z,29.46
2024-05-09T14:22:57.825Z,28.61
2024-05-09T14:25:26.758Z,28.34
2024-05-09T14:27:54.120Z,28.64
2024-05-09T14:30:30.180Z,28.65
2024-05-09T14:33:02.784Z,27.52
2024-05-09T14:35:29.559Z,28.04
2024-05-09T14:37:56.436Z,28.53
2024-05-09T14:40:35.915Z,29.98
2024-05-09T14:43:08.235Z,28.70
2024-05-09T14:45:35.108Z,27.96
2024-05-09T14:48:02.867Z,27.56
2024-05-09T14:50:35.857Z,28.62
2024-05-09T14:53:07.508Z,26.95
2024-05-09T14:55:37.448Z,27.63
2024-05-09T14:58:09.247Z,28.34
2024-05-09T15:00:45.999Z,26.86
2024-05-09T15:03:17.008Z,27.19
2024-05-09T15:05:45.327Z,28.06
2024-05-09T15:08:12.365Z,26.61
2024-05-09T15:10:39.224Z,27.56
2024-05-09T15:13:08.112Z,28.42
2024-05-09T15:15:37.137Z,27.42
2024-05-09T15:18:05.143Z,28.36
2024-05-09T15:20:35.997Z,28.22
2024-05-09T15:23:06.638Z,27.92
2024-05-09T15:25:35.349Z,29.64
2024-05-09T15:28:02.534Z,29.28
2024-05-09T15:30:32.306Z,30.82
2024-05-09T15:33:03.188Z,28.39
2024-05-09T15:35:30.133Z,28.87
2024-05-09T15:37:56.828Z,28.06
2024-05-09T15:40:34.440Z,28.44
2024-05-09T15:43:06.706Z,30.28
2024-05-09T15:45:34.089Z,30.06
2024-05-09T15:48:02.588Z,30.64
2024-05-09T15:50:36.986Z,30.64
2024-05-09T15:53:08.690Z,29.85
2024-05-09T15:55:36.284Z,28.92
2024-05-09T15:58:04.268Z,31.57
2024-05-09T16:00:38.925Z,33.16
2024-05-09T16:03:13.350Z,30.36
2024-05-09T16:05:42.981Z,29.28
2024-05-09T16:08:11.498Z,30.66
2024-05-09T16:10:44.487Z,30.40
2024-05-09T16:13:12.742Z,30.86
2024-05-09T16:15:40.090Z,29.94
2024-05-09T16:18:07.488Z,29.36
2024-05-09T16:20:39.635Z,29.32
2024-05-09T16:23:09.034Z,28.38
2024-05-09T16:25:36.277Z,27.75
2024-05-09T16:28:07.412Z,27.85
2024-05-09T16:30:37.236Z,27.54
2024-05-09T16:33:05.331Z,27.65
2024-05-09T16:35:34.614Z,27.27
2024-05-09T16:38:02.930Z,26.77
2024-05-09T16:40:37.364Z,28.00
2024-05-09T16:43:07.872Z,27.21
2024-05-09T16:45:35.360Z,28.14
2024-05-09T16:48:02.863Z,27.93
2024-05-09T16:50:33.798Z,28.19
2024-05-09T16:53:03.234Z,28.64
2024-05-09T16:55:30.318Z,28.66
2024-05-09T16:57:58.095Z,28.83
2024-05-09T17:00:35.860Z,28.35
2024-05-09T17:03:09.746Z,29.34
2024-05-09T17:05:37.346Z,30.70
2024-05-09T17:08:05.008Z,30.25
2024-05-09T17:10:34.162Z,31.67
2024-05-09T17:13:03.836Z,31.86
2024-05-09T17:15:32.271Z,31.29
2024-05-09T17:17:59.232Z,31.82
2024-05-09T17:20:32.435Z,32.17
2024-05-09T17:23:03.252Z,32.84
2024-05-09T17:25:30.094Z,32.36
2024-05-09T17:27:57.324Z,32.64
2024-05-09T17:30:29.166Z,32.59
2024-05-09T17:33:03.305Z,33.17
2024-05-09T17:35:30.058Z,34.46
2024-05-09T17:37:58.028Z,33.82
2024-05-09T17:40:31.131Z,33.70
2024-05-09T17:43:01.730Z,33.99
2024-05-09T17:45:28.704Z,34.36
2024-05-09T17:47:55.772Z,35.76
2024-05-09T17:50:30.311Z,36.03
2024-05-09T17:53:01.755Z,36.36
2024-05-09T17:55:28.834Z,36.93
2024-05-09T17:57:55.937Z,37.14
2024-05-09T18:00:33.150Z,38.67
2024-05-09T18:03:06.398Z,38.17
2024-05-09T18:05:38.165Z,38.00
2024-05-09T18:08:08.408Z,38.30
2024-05-09T18:10:38.598Z,38.26
2024-05-09T18:13:11.428Z,39.05
2024-05-09T18:15:39.030Z,38.89
2024-05-09T18:18:06.611Z,40.08
2024-05-09T18:20:41.835Z,39.31
2024-05-09T18:23:17.178Z,40.46
2024-05-09T18:25:45.796Z,42.76
2024-05-09T18:28:13.427Z,44.42
2024-05-09T18:30:40.981Z,45.90
2024-05-09T18:33:10.655Z,46.42
2024-05-09T18:35:37.790Z,46.54
2024-05-09T18:38:05.314Z,48.59
2024-05-09T18:40:35.989Z,48.74
2024-05-09T18:43:06.882Z,50.30
2024-05-09T18:45:36.109Z,51.32
2024-05-09T18:48:04.891Z,52.46
2024-05-09T18:50:36.170Z,52.58
2024-05-09T18:53:06.473Z,55.21
2024-05-09T18:55:33.344Z,57.68
2024-05-09T18:58:00.104Z,61.42
2024-05-09T19:00:34.133Z,60.94
2024-05-09T19:03:08.099Z,62.91
2024-05-09T19:05:36.434Z,62.03
2024-05-09T19:08:03.719Z,65.84
2024-05-09T19:10:34.449Z,68.29
2024-05-09T19:13:06.810Z,71.22
2024-05-09T19:15:38.380Z,71.16
2024-05-09T19:18:06.307Z,72.77
2024-05-09T19:20:35.278Z,76.35
2024-05-09T19:23:03.608Z,77.93
2024-05-09T19:25:30.581Z,78.13
2024-05-09T19:27:57.433Z,80.57
2024-05-09T19:30:32.986Z,80.85
2024-05-09T19:33:06.047Z,83.99
2024-05-09T19:35:33.083Z,85.74
2024-05-09T19:38:00.014Z,85.25
2024-05-09T19:40:31.503Z,94.17
2024-05-09T19:43:01.725Z,88.36
2024-05-09T19:45:29.130Z,90.66
2024-05-09T19:47:56.354Z,95.74
2024-05-09T19:50:32.128Z,91.59
2024-05-09T19:53:06.900Z,96.23
2024-05-09T19:55:35.020Z,96.33
2024-05-09T19:58:05.378Z,99.16
2024-05-09T20:00:40.265Z,98.85
2024-05-09T20:03:09.868Z,96.26
2024-05-09T20:05:37.697Z,98.52
2024-05-09T20:08:05.747Z,100.00
2024-05-09T20:10:35.009Z,97.75
2024-05-09T20:13:04.479Z,97.97
2024-05-09T20:15:34.087Z,100.00
2024-05-09T20:18:01.336Z,99.34
2024-05-09T20:20:36.108Z,100.00
2024-05-09T20:23:06.739Z,100.00
2024-05-09T20:25:33.391Z,100.00
2024-05-09T20:28:00.145Z,100.00
2024-05-09T20:30:32.091Z,100.00
2024-05-09T20:33:03.037Z,100.00
2024-05-09T20:35:32.286Z,100.00
2024-05-09T20:37:59.500Z,100.00
2024-05-09T20:40:32.513Z,100.00
2024-05-09T20:43:02.763Z,100.00
2024-05-09T20:45:29.537Z,100.00
2024-05-09T20:47:56.439Z,100.00
2024-05-09T20:50:32.044Z,100.00
2024-05-09T20:53:05.430Z,100.00
2024-05-09T20:55:32.328Z,100.00
2024-05-09T20:57:59.268Z,100.00
2024-05-09T21:00:34.864Z,100.00
2024-05-09T21:03:07.236Z,100.00
2024-05-09T21:05:35.060Z,100.00
2024-05-09T21:08:02.603Z,100.00
2024-05-09T21:10:32.929Z,100.00
2024-05-09T21:13:01.871Z,100.00
2024-05-09T21:15:29.423Z,100.00
2024-05-09T21:17:56.123Z,100.00
2024-05-09T21:20:28.894Z,100.00
2024-05-09T21:22:58.634Z,100.00
2024-05-09T21:25:25.446Z,100.00
2024-05-09T21:27:52.565Z,100.00
2024-05-09T21:30:31.229Z,100.00
2024-05-09T21:33:06.022Z,100.00
2024-05-09T21:35:32.801Z,100.00
2024-05-09T21:37:59.757Z,100.00
2024-05-09T21:40:33.492Z,100.00
2024-05-09T21:43:02.321Z,100.00
2024-05-09T21:45:29.395Z,100.00
2024-05-09T21:47:56.187Z,100.00
2024-05-09T21:50:28.761Z,100.00
2024-05-09T21:53:03.835Z,100.00
2024-05-09T21:55:30.604Z,100.00
2024-05-09T21:57:57.519Z,100.00
2024-05-09T22:00:32.268Z,100.00
2024-05-09T22:03:03.774Z,100.00
2024-05-09T22:05:30.900Z,100.00
2024-05-09T22:07:57.752Z,100.00
2024-05-09T22:10:30.997Z,100.00
2024-05-09T22:13:01.767Z,100.00
2024-05-09T22:15:28.687Z,100.00
2024-05-09T22:17:57.442Z,100.00
2024-05-09T22:20:33.877Z,100.00
2024-05-09T22:23:04.600Z,100.00
2024-05-09T22:25:32.335Z,100.00
2024-05-09T22:28:00.677Z,100.00
2024-05-09T22:30:34.955Z,100.00
2024-05-09T22:33:10.668Z,100.00
2024-05-09T22:35:40.895Z,100.00
2024-05-09T22:38:08.160Z,100.00
2024-05-09T22:40:45.434Z,100.00
2024-05-09T22:43:24.008Z,100.00
2024-05-09T22:45:55.544Z,100.00
2024-05-09T22:48:24.256Z,100.00
2024-05-09T22:50:51.762Z,100.00
2024-05-09T22:53:18.517Z,100.00
2024-05-09T22:55:45.280Z,100.00
2024-05-09T22:58:12.014Z,100.00
2024-05-09T23:00:38.978Z,100.00
2024-05-09T23:03:06.076Z,100.00
2024-05-09T23:05:33.170Z,100.00
2024-05-09T23:08:01.492Z,100.00
2024-05-09T23:10:35.442Z,100.00
2024-05-09T23:13:04.569Z,100.00
2024-05-09T23:15:31.805Z,100.00
2024-05-09T23:17:58.976Z,100.00
2024-05-09T23:20:35.861Z,100.00
2024-05-09T23:23:06.859Z,100.00
2024-05-09T23:25:34.055Z,100.00
2024-05-09T23:28:00.878Z,100.00
2024-05-09T23:30:36.065Z,100.00
2024-05-09T23:33:06.974Z,100.00
2024-05-09T23:35:33.732Z,100.00
2024-05-09T23:38:00.476Z,100.00
2024-05-09T23:40:37.321Z,100.00
2024-05-09T23:43:11.603Z,100.00
2024-05-09T23:45:39.161Z,100.00
2024-05-09T23:48:06.820Z,100.00
2024-05-09T23:50:36.778Z,100.00
2024-05-09T23:53:07.097Z,100.00
2024-05-09T23:55:34.982Z,100.00
2024-05-09T23:58:01.900Z,100.00
